sensor_id;sensor_type;location;lat;lon;timestamp;temperature;humidity
18577;DHT22;9418;52.694;13.294;2023-04-01T00:01:13;9.20;42.90
18577;DHT22;9418;52.694;13.294;2023-04-01T00:03:40;9.20;42.70
18577;DHT22;9418;52.694;13.294;2023-04-01T00:06:06;9.20;42.60
18577;DHT22;9418;52.694;13.294;2023-04-01T00:08:33;9.20;42.10
18577;DHT22;9418;52.694;13.294;2023-04-01T00:10:59;9.20;41.80
18577;DHT22;9418;52.694;13.294;2023-04-01T00:13:26;9.20;41.90
18577;DHT22;9418;52.694;13.294;2023-04-01T00:15:53;9.20;42.00
18577;DHT22;9418;52.694;13.294;2023-04-01T00:18:22;9.20;41.90
18577;DHT22;9418;52.694;13.294;2023-04-01T00:20:50;9.20;40.90
18577;DHT22;9418;52.694;13.294;2023-04-01T00:23:17;9.20;41.70
18577;DHT22;9418;52.694;13.294;2023-04-01T00:25:45;9.20;41.90
18577;DHT22;9418;52.694;13.294;2023-04-01T00:28:13;9.20;41.80
18577;DHT22;9418;52.694;13.294;2023-04-01T00:30:40;9.20;40.90
18577;DHT22;9418;52.694;13.294;2023-04-01T00:33:07;9.20;40.60
18577;DHT22;9418;52.694;13.294;2023-04-01T00:35:34;9.20;40.60
18577;DHT22;9418;52.694;13.294;2023-04-01T00:38:02;9.10;40.20
18577;DHT22;9418;52.694;13.294;2023-04-01T00:40:31;9.20;40.40
18577;DHT22;9418;52.694;13.294;2023-04-01T00:42:59;9.10;40.40
18577;DHT22;9418;52.694;13.294;2023-04-01T00:45:32;9.10;40.70
18577;DHT22;9418;52.694;13.294;2023-04-01T00:48:00;9.10;40.50
18577;DHT22;9418;52.694;13.294;2023-04-01T00:50:29;9.10;41.00
18577;DHT22;9418;52.694;13.294;2023-04-01T00:52:58;9.10;41.80
18577;DHT22;9418;52.694;13.294;2023-04-01T00:55:27;9.10;41.90
18577;DHT22;9418;52.694;13.294;2023-04-01T00:57:56;9.20;41.90
18577;DHT22;9418;52.694;13.294;2023-04-01T01:00:24;9.20;41.80
18577;DHT22;9418;52.694;13.294;2023-04-01T01:02:52;9.20;41.90
18577;DHT22;9418;52.694;13.294;2023-04-01T01:05:23;9.10;41.80
18577;DHT22;9418;52.694;13.294;2023-04-01T01:08:01;9.20;41.90
18577;DHT22;9418;52.694;13.294;2023-04-01T01:10:31;9.20;41.90
18577;DHT22;9418;52.694;13.294;2023-04-01T01:13:04;9.10;41.70
18577;DHT22;9418;52.694;13.294;2023-04-01T01:15:39;9.20;41.50
18577;DHT22;9418;52.694;13.294;2023-04-01T01:18:15;9.20;41.00
18577;DHT22;9418;52.694;13.294;2023-04-01T01:21:04;9.20;41.90
18577;DHT22;9418;52.694;13.294;2023-04-01T01:24:08;9.20;41.60
18577;DHT22;9418;52.694;13.294;2023-04-01T01:26:53;9.20;41.90
18577;DHT22;9418;52.694;13.294;2023-04-01T01:29:45;9.20;40.50
18577;DHT22;9418;52.694;13.294;2023-04-01T01:32:28;9.10;40.60
18577;DHT22;9418;52.694;13.294;2023-04-01T01:35:10;9.10;41.80
18577;DHT22;9418;52.694;13.294;2023-04-01T01:37:39;9.10;40.60
18577;DHT22;9418;52.694;13.294;2023-04-01T01:40:08;9.10;41.10
18577;DHT22;9418;52.694;13.294;2023-04-01T01:42:38;9.10;41.00
18577;DHT22;9418;52.694;13.294;2023-04-01T01:45:07;9.10;40.40
18577;DHT22;9418;52.694;13.294;2023-04-01T01:47:35;9.10;39.20
18577;DHT22;9418;52.694;13.294;2023-04-01T01:50:05;9.10;38.60
18577;DHT22;9418;52.694;13.294;2023-04-01T01:52:32;9.10;38.10
18577;DHT22;9418;52.694;13.294;2023-04-01T01:54:59;9.10;37.40
18577;DHT22;9418;52.694;13.294;2023-04-01T01:57:27;9.10;36.90
18577;DHT22;9418;52.694;13.294;2023-04-01T01:59:58;9.10;37.10
18577;DHT22;9418;52.694;13.294;2023-04-01T02:02:27;9.10;37.60
18577;DHT22;9418;52.694;13.294;2023-04-01T02:04:57;9.10;37.10
18577;DHT22;9418;52.694;13.294;2023-04-01T02:07:28;9.10;36.40
18577;DHT22;9418;52.694;13.294;2023-04-01T02:09:57;9.10;36.10
18577;DHT22;9418;52.694;13.294;2023-04-01T02:12:24;9.10;36.70
18577;DHT22;9418;52.694;13.294;2023-04-01T02:14:53;9.10;36.80
18577;DHT22;9418;52.694;13.294;2023-04-01T02:17:23;9.10;36.40
18577;DHT22;9418;52.694;13.294;2023-04-01T02:19:53;9.10;34.70
18577;DHT22;9418;52.694;13.294;2023-04-01T02:22:23;9.10;34.70
18577;DHT22;9418;52.694;13.294;2023-04-01T02:24:54;9.10;35.00
18577;DHT22;9418;52.694;13.294;2023-04-01T02:27:24;9.10;33.80
18577;DHT22;9418;52.694;13.294;2023-04-01T02:29:51;9.10;34.60
18577;DHT22;9418;52.694;13.294;2023-04-01T02:32:19;9.10;34.00
18577;DHT22;9418;52.694;13.294;2023-04-01T02:34:47;9.10;33.50
18577;DHT22;9418;52.694;13.294;2023-04-01T02:37:14;9.10;33.10
18577;DHT22;9418;52.694;13.294;2023-04-01T02:39:41;9.10;32.20
18577;DHT22;9418;52.694;13.294;2023-04-01T02:42:10;9.10;31.50
18577;DHT22;9418;52.694;13.294;2023-04-01T02:44:36;9.10;31.50
18577;DHT22;9418;52.694;13.294;2023-04-01T02:47:03;9.10;31.20
18577;DHT22;9418;52.694;13.294;2023-04-01T02:49:30;9.00;30.10
18577;DHT22;9418;52.694;13.294;2023-04-01T02:51:56;9.10;30.10
18577;DHT22;9418;52.694;13.294;2023-04-01T02:54:23;9.10;29.90
18577;DHT22;9418;52.694;13.294;2023-04-01T02:56:50;9.10;29.70
18577;DHT22;9418;52.694;13.294;2023-04-01T02:59:17;9.10;29.20
18577;DHT22;9418;52.694;13.294;2023-04-01T03:01:44;9.10;29.00
18577;DHT22;9418;52.694;13.294;2023-04-01T03:04:10;9.10;27.70
18577;DHT22;9418;52.694;13.294;2023-04-01T03:06:37;9.10;27.30
18577;DHT22;9418;52.694;13.294;2023-04-01T03:09:03;9.00;28.40
18577;DHT22;9418;52.694;13.294;2023-04-01T03:11:30;9.00;27.40
18577;DHT22;9418;52.694;13.294;2023-04-01T03:13:57;9.00;26.70
18577;DHT22;9418;52.694;13.294;2023-04-01T03:16:24;9.00;28.10
18577;DHT22;9418;52.694;13.294;2023-04-01T03:18:51;9.10;27.90
18577;DHT22;9418;52.694;13.294;2023-04-01T03:21:20;9.10;28.60
18577;DHT22;9418;52.694;13.294;2023-04-01T03:23:46;9.00;28.20
18577;DHT22;9418;52.694;13.294;2023-04-01T03:26:14;9.00;28.70
18577;DHT22;9418;52.694;13.294;2023-04-01T03:28:41;9.00;26.60
18577;DHT22;9418;52.694;13.294;2023-04-01T03:31:07;9.00;26.10
18577;DHT22;9418;52.694;13.294;2023-04-01T03:33:35;9.00;24.90
18577;DHT22;9418;52.694;13.294;2023-04-01T03:36:02;9.00;26.00
18577;DHT22;9418;52.694;13.294;2023-04-01T03:38:31;9.00;26.90
18577;DHT22;9418;52.694;13.294;2023-04-01T03:40:58;9.00;25.90
18577;DHT22;9418;52.694;13.294;2023-04-01T03:43:24;9.00;26.00
18577;DHT22;9418;52.694;13.294;2023-04-01T03:45:52;9.00;25.80
18577;DHT22;9418;52.694;13.294;2023-04-01T03:48:19;9.00;25.00
18577;DHT22;9418;52.694;13.294;2023-04-01T03:50:47;9.00;24.20
18577;DHT22;9418;52.694;13.294;2023-04-01T03:53:14;9.00;22.10
18577;DHT22;9418;52.694;13.294;2023-04-01T03:55:41;9.00;22.00
18577;DHT22;9418;52.694;13.294;2023-04-01T03:58:08;9.00;22.90
18577;DHT22;9418;52.694;13.294;2023-04-01T04:00:35;9.00;22.40
18577;DHT22;9418;52.694;13.294;2023-04-01T04:03:01;9.00;20.70
18577;DHT22;9418;52.694;13.294;2023-04-01T04:05:28;9.00;72.70
18577;DHT22;9418;52.694;13.294;2023-04-01T04:07:56;9.00;84.00
18577;DHT22;9418;52.694;13.294;2023-04-01T04:10:23;9.00;84.80
18577;DHT22;9418;52.694;13.294;2023-04-01T04:12:51;9.00;81.50
18577;DHT22;9418;52.694;13.294;2023-04-01T04:15:17;9.00;90.40
18577;DHT22;9418;52.694;13.294;2023-04-01T04:17:44;9.00;99.90
18577;DHT22;9418;52.694;13.294;2023-04-01T04:20:10;9.00;99.90
18577;DHT22;9418;52.694;13.294;2023-04-01T04:22:37;9.00;99.90
18577;DHT22;9418;52.694;13.294;2023-04-01T04:25:06;9.00;99.90
18577;DHT22;9418;52.694;13.294;2023-04-01T04:27:33;9.00;99.90
18577;DHT22;9418;52.694;13.294;2023-04-01T04:30:00;9.00;99.90
18577;DHT22;9418;52.694;13.294;2023-04-01T04:32:27;9.00;99.90
18577;DHT22;9418;52.694;13.294;2023-04-01T04:34:53;9.00;99.90
18577;DHT22;9418;52.694;13.294;2023-04-01T04:37:20;9.00;99.90
18577;DHT22;9418;52.694;13.294;2023-04-01T04:39:46;9.00;99.90
18577;DHT22;9418;52.694;13.294;2023-04-01T04:42:14;9.00;99.90
18577;DHT22;9418;52.694;13.294;2023-04-01T04:44:40;9.00;99.90
18577;DHT22;9418;52.694;13.294;2023-04-01T04:47:07;9.00;99.90
18577;DHT22;9418;52.694;13.294;2023-04-01T04:49:34;9.00;99.90
18577;DHT22;9418;52.694;13.294;2023-04-01T04:52:00;9.00;99.90
18577;DHT22;9418;52.694;13.294;2023-04-01T04:54:27;9.00;99.90
18577;DHT22;9418;52.694;13.294;2023-04-01T04:56:53;9.00;99.90
18577;DHT22;9418;52.694;13.294;2023-04-01T04:59:21;9.00;99.90
18577;DHT22;9418;52.694;13.294;2023-04-01T05:01:48;9.00;99.90
18577;DHT22;9418;52.694;13.294;2023-04-01T05:04:15;9.10;99.90
18577;DHT22;9418;52.694;13.294;2023-04-01T05:06:43;9.00;99.90
18577;DHT22;9418;52.694;13.294;2023-04-01T05:09:10;9.00;99.90
18577;DHT22;9418;52.694;13.294;2023-04-01T05:11:36;9.10;99.90
18577;DHT22;9418;52.694;13.294;2023-04-01T05:14:03;9.00;99.90
18577;DHT22;9418;52.694;13.294;2023-04-01T05:16:30;9.00;99.90
18577;DHT22;9418;52.694;13.294;2023-04-01T05:18:58;9.10;99.90
18577;DHT22;9418;52.694;13.294;2023-04-01T05:21:25;9.10;99.90
18577;DHT22;9418;52.694;13.294;2023-04-01T05:23:51;9.10;99.90
18577;DHT22;9418;52.694;13.294;2023-04-01T05:26:18;9.10;99.90
18577;DHT22;9418;52.694;13.294;2023-04-01T05:28:44;9.10;99.90
18577;DHT22;9418;52.694;13.294;2023-04-01T05:31:11;9.10;99.90
18577;DHT22;9418;52.694;13.294;2023-04-01T05:33:38;9.20;99.90
18577;DHT22;9418;52.694;13.294;2023-04-01T05:36:06;9.20;99.90
18577;DHT22;9418;52.694;13.294;2023-04-01T05:38:33;9.20;99.90
18577;DHT22;9418;52.694;13.294;2023-04-01T05:41:00;9.20;99.90
18577;DHT22;9418;52.694;13.294;2023-04-01T05:43:26;9.20;99.90
18577;DHT22;9418;52.694;13.294;2023-04-01T05:45:53;9.20;99.90
18577;DHT22;9418;52.694;13.294;2023-04-01T05:48:20;9.20;99.90
18577;DHT22;9418;52.694;13.294;2023-04-01T05:50:48;9.20;99.90
18577;DHT22;9418;52.694;13.294;2023-04-01T05:53:14;9.20;99.90
18577;DHT22;9418;52.694;13.294;2023-04-01T05:55:41;9.20;99.90
18577;DHT22;9418;52.694;13.294;2023-04-01T05:58:07;9.20;99.90
18577;DHT22;9418;52.694;13.294;2023-04-01T06:00:34;9.30;99.90
18577;DHT22;9418;52.694;13.294;2023-04-01T06:03:00;9.20;99.90
18577;DHT22;9418;52.694;13.294;2023-04-01T06:05:29;9.30;99.90
18577;DHT22;9418;52.694;13.294;2023-04-01T06:07:59;9.30;99.90
18577;DHT22;9418;52.694;13.294;2023-04-01T06:10:39;9.30;99.90
18577;DHT22;9418;52.694;13.294;2023-04-01T06:13:14;9.30;99.90
18577;DHT22;9418;52.694;13.294;2023-04-01T06:15:52;9.30;99.90
18577;DHT22;9418;52.694;13.294;2023-04-01T06:18:45;9.30;99.90
18577;DHT22;9418;52.694;13.294;2023-04-01T06:21:30;9.40;99.90
18577;DHT22;9418;52.694;13.294;2023-04-01T06:24:13;9.40;99.90
18577;DHT22;9418;52.694;13.294;2023-04-01T06:26:50;9.40;99.90
18577;DHT22;9418;52.694;13.294;2023-04-01T06:29:39;9.40;99.90
18577;DHT22;9418;52.694;13.294;2023-04-01T06:32:20;9.40;99.90
18577;DHT22;9418;52.694;13.294;2023-04-01T06:34:58;9.40;99.90
18577;DHT22;9418;52.694;13.294;2023-04-01T06:37:52;9.40;99.90
18577;DHT22;9418;52.694;13.294;2023-04-01T06:40:39;9.40;99.90
18577;DHT22;9418;52.694;13.294;2023-04-01T06:43:16;9.40;99.90
18577;DHT22;9418;52.694;13.294;2023-04-01T06:45:50;9.40;99.90
18577;DHT22;9418;52.694;13.294;2023-04-01T06:48:41;9.50;99.90
18577;DHT22;9418;52.694;13.294;2023-04-01T06:51:20;9.50;99.90
18577;DHT22;9418;52.694;13.294;2023-04-01T06:53:54;9.50;99.90
18577;DHT22;9418;52.694;13.294;2023-04-01T06:56:26;9.40;99.90
18577;DHT22;9418;52.694;13.294;2023-04-01T06:58:55;9.30;99.90
18577;DHT22;9418;52.694;13.294;2023-04-01T07:01:27;9.20;99.90
18577;DHT22;9418;52.694;13.294;2023-04-01T07:03:58;9.20;99.90
18577;DHT22;9418;52.694;13.294;2023-04-01T07:06:28;9.20;99.90
18577;DHT22;9418;52.694;13.294;2023-04-01T07:08:59;9.10;99.90
18577;DHT22;9418;52.694;13.294;2023-04-01T07:11:32;9.00;99.90
18577;DHT22;9418;52.694;13.294;2023-04-01T07:14:01;8.90;99.90
18577;DHT22;9418;52.694;13.294;2023-04-01T07:16:31;8.90;99.90
18577;DHT22;9418;52.694;13.294;2023-04-01T07:19:03;8.70;99.90
18577;DHT22;9418;52.694;13.294;2023-04-01T07:21:34;8.70;99.90
18577;DHT22;9418;52.694;13.294;2023-04-01T07:24:06;8.70;99.90
18577;DHT22;9418;52.694;13.294;2023-04-01T07:26:36;8.60;99.90
18577;DHT22;9418;52.694;13.294;2023-04-01T07:29:05;8.60;99.90
18577;DHT22;9418;52.694;13.294;2023-04-01T07:31:49;8.50;99.90
18577;DHT22;9418;52.694;13.294;2023-04-01T07:34:23;8.50;99.90
18577;DHT22;9418;52.694;13.294;2023-04-01T07:36:54;8.60;99.90
18577;DHT22;9418;52.694;13.294;2023-04-01T07:39:31;8.50;99.90
18577;DHT22;9418;52.694;13.294;2023-04-01T07:42:06;8.40;99.90
18577;DHT22;9418;52.694;13.294;2023-04-01T07:44:40;8.40;99.90
18577;DHT22;9418;52.694;13.294;2023-04-01T07:47:21;8.50;99.90
18577;DHT22;9418;52.694;13.294;2023-04-01T07:49:58;8.40;99.90
18577;DHT22;9418;52.694;13.294;2023-04-01T07:52:33;8.40;99.90
18577;DHT22;9418;52.694;13.294;2023-04-01T07:55:06;8.40;99.90
18577;DHT22;9418;52.694;13.294;2023-04-01T07:57:41;8.30;99.90
18577;DHT22;9418;52.694;13.294;2023-04-01T08:00:16;8.30;99.90
18577;DHT22;9418;52.694;13.294;2023-04-01T08:02:55;8.30;99.90
18577;DHT22;9418;52.694;13.294;2023-04-01T08:05:27;8.20;99.90
18577;DHT22;9418;52.694;13.294;2023-04-01T08:08:00;8.30;99.90
18577;DHT22;9418;52.694;13.294;2023-04-01T08:10:36;8.40;99.90
18577;DHT22;9418;52.694;13.294;2023-04-01T08:13:14;8.40;99.90
18577;DHT22;9418;52.694;13.294;2023-04-01T08:15:49;8.40;99.90
18577;DHT22;9418;52.694;13.294;2023-04-01T08:18:26;8.30;99.90
18577;DHT22;9418;52.694;13.294;2023-04-01T08:20:58;8.30;99.90
18577;DHT22;9418;52.694;13.294;2023-04-01T08:23:27;8.30;99.90
18577;DHT22;9418;52.694;13.294;2023-04-01T08:26:00;8.30;99.90
18577;DHT22;9418;52.694;13.294;2023-04-01T08:28:37;8.20;99.90
18577;DHT22;9418;52.694;13.294;2023-04-01T08:31:09;8.30;99.90
18577;DHT22;9418;52.694;13.294;2023-04-01T08:33:38;8.30;99.90
18577;DHT22;9418;52.694;13.294;2023-04-01T08:36:09;8.30;99.90
18577;DHT22;9418;52.694;13.294;2023-04-01T08:38:41;8.40;99.90
18577;DHT22;9418;52.694;13.294;2023-04-01T08:47:32;8.40;99.90
18577;DHT22;9418;52.694;13.294;2023-04-01T08:50:41;8.40;99.90
18577;DHT22;9418;52.694;13.294;2023-04-01T08:53:18;8.40;99.90
18577;DHT22;9418;52.694;13.294;2023-04-01T08:56:01;8.40;99.90
18577;DHT22;9418;52.694;13.294;2023-04-01T09:01:47;8.50;99.90
18577;DHT22;9418;52.694;13.294;2023-04-01T09:04:30;8.50;99.90
18577;DHT22;9418;52.694;13.294;2023-04-01T09:07:09;8.40;99.90
18577;DHT22;9418;52.694;13.294;2023-04-01T09:10:07;8.30;99.90
18577;DHT22;9418;52.694;13.294;2023-04-01T09:12:59;8.40;99.90
18577;DHT22;9418;52.694;13.294;2023-04-01T09:15:59;8.50;99.90
18577;DHT22;9418;52.694;13.294;2023-04-01T09:18:56;8.40;99.90
18577;DHT22;9418;52.694;13.294;2023-04-01T09:22:03;8.60;99.90
18577;DHT22;9418;52.694;13.294;2023-04-01T09:25:01;8.60;99.90
18577;DHT22;9418;52.694;13.294;2023-04-01T09:27:29;8.70;99.90
18577;DHT22;9418;52.694;13.294;2023-04-01T09:30:27;8.50;99.90
18577;DHT22;9418;52.694;13.294;2023-04-01T09:36:03;8.50;99.90
18577;DHT22;9418;52.694;13.294;2023-04-01T09:38:37;8.50;99.90
18577;DHT22;9418;52.694;13.294;2023-04-01T09:41:14;8.50;99.90
18577;DHT22;9418;52.694;13.294;2023-04-01T09:43:56;8.60;99.90
18577;DHT22;9418;52.694;13.294;2023-04-01T09:46:35;8.60;99.90
18577;DHT22;9418;52.694;13.294;2023-04-01T09:49:17;8.60;99.90
18577;DHT22;9418;52.694;13.294;2023-04-01T09:51:57;8.50;99.90
18577;DHT22;9418;52.694;13.294;2023-04-01T09:54:50;8.60;99.90
18577;DHT22;9418;52.694;13.294;2023-04-01T10:09:59;8.60;99.90
18577;DHT22;9418;52.694;13.294;2023-04-01T10:12:50;8.60;99.90
18577;DHT22;9418;52.694;13.294;2023-04-01T10:15:46;8.50;99.90
18577;DHT22;9418;52.694;13.294;2023-04-01T10:21:43;8.50;99.90
18577;DHT22;9418;52.694;13.294;2023-04-01T10:24:45;8.50;99.90
18577;DHT22;9418;52.694;13.294;2023-04-01T10:27:38;8.40;99.90
18577;DHT22;9418;52.694;13.294;2023-04-01T10:30:36;8.20;99.90
18577;DHT22;9418;52.694;13.294;2023-04-01T10:36:43;8.30;99.90
18577;DHT22;9418;52.694;13.294;2023-04-01T10:39:48;8.30;99.90
18577;DHT22;9418;52.694;13.294;2023-04-01T10:45:55;8.20;99.90
18577;DHT22;9418;52.694;13.294;2023-04-01T10:52:12;8.40;99.90
18577;DHT22;9418;52.694;13.294;2023-04-01T10:54:47;8.50;99.90
18577;DHT22;9418;52.694;13.294;2023-04-01T10:57:34;8.60;99.90
18577;DHT22;9418;52.694;13.294;2023-04-01T11:00:32;8.60;99.90
18577;DHT22;9418;52.694;13.294;2023-04-01T11:06:51;8.50;99.90
18577;DHT22;9418;52.694;13.294;2023-04-01T11:09:50;8.40;99.90
18577;DHT22;9418;52.694;13.294;2023-04-01T11:12:57;8.30;99.90
18577;DHT22;9418;52.694;13.294;2023-04-01T11:15:55;8.30;99.90
18577;DHT22;9418;52.694;13.294;2023-04-01T11:27:46;8.20;99.90
18577;DHT22;9418;52.694;13.294;2023-04-01T11:30:27;8.30;99.90
18577;DHT22;9418;52.694;13.294;2023-04-01T11:32:59;8.30;99.90
18577;DHT22;9418;52.694;13.294;2023-04-01T11:35:53;8.30;99.90
18577;DHT22;9418;52.694;13.294;2023-04-01T11:38:49;8.20;99.90
18577;DHT22;9418;52.694;13.294;2023-04-01T11:41:27;8.20;99.90
18577;DHT22;9418;52.694;13.294;2023-04-01T11:44:11;8.20;99.90
18577;DHT22;9418;52.694;13.294;2023-04-01T11:49:43;8.10;99.90
18577;DHT22;9418;52.694;13.294;2023-04-01T11:52:24;8.10;99.90
18577;DHT22;9418;52.694;13.294;2023-04-01T11:55:06;8.20;99.90
18577;DHT22;9418;52.694;13.294;2023-04-01T11:57:46;8.20;99.90
18577;DHT22;9418;52.694;13.294;2023-04-01T12:00:39;8.40;99.90
18577;DHT22;9418;52.694;13.294;2023-04-01T12:03:26;8.40;99.90
18577;DHT22;9418;52.694;13.294;2023-04-01T12:06:02;8.40;99.90
18577;DHT22;9418;52.694;13.294;2023-04-01T12:08:40;8.30;79.70
18577;DHT22;9418;52.694;13.294;2023-04-01T12:11:17;8.40;99.90
18577;DHT22;9418;52.694;13.294;2023-04-01T12:13:52;8.40;99.90
18577;DHT22;9418;52.694;13.294;2023-04-01T12:16:38;8.40;99.90
18577;DHT22;9418;52.694;13.294;2023-04-01T12:19:14;8.40;99.90
18577;DHT22;9418;52.694;13.294;2023-04-01T12:21:48;8.30;99.90
18577;DHT22;9418;52.694;13.294;2023-04-01T12:24:47;8.30;99.90
18577;DHT22;9418;52.694;13.294;2023-04-01T12:27:38;8.30;99.90
18577;DHT22;9418;52.694;13.294;2023-04-01T12:30:22;8.30;99.90
18577;DHT22;9418;52.694;13.294;2023-04-01T12:33:01;8.10;99.90
18577;DHT22;9418;52.694;13.294;2023-04-01T12:35:34;8.10;99.90
18577;DHT22;9418;52.694;13.294;2023-04-01T12:38:11;8.00;99.90
18577;DHT22;9418;52.694;13.294;2023-04-01T12:40:56;8.00;99.90
18577;DHT22;9418;52.694;13.294;2023-04-01T12:43:48;7.90;99.90
18577;DHT22;9418;52.694;13.294;2023-04-01T12:46:26;7.90;99.90
18577;DHT22;9418;52.694;13.294;2023-04-01T12:49:31;7.80;78.60
18577;DHT22;9418;52.694;13.294;2023-04-01T12:52:04;7.80;99.90
18577;DHT22;9418;52.694;13.294;2023-04-01T12:54:48;7.80;99.90
18577;DHT22;9418;52.694;13.294;2023-04-01T12:57:39;7.90;99.90
18577;DHT22;9418;52.694;13.294;2023-04-01T13:00:24;7.90;99.90
18577;DHT22;9418;52.694;13.294;2023-04-01T13:03:10;7.80;99.90
18577;DHT22;9418;52.694;13.294;2023-04-01T13:06:06;7.80;99.90
18577;DHT22;9418;52.694;13.294;2023-04-01T13:08:41;7.70;99.90
18577;DHT22;9418;52.694;13.294;2023-04-01T13:11:14;7.80;99.90
18577;DHT22;9418;52.694;13.294;2023-04-01T13:14:05;7.60;99.90
18577;DHT22;9418;52.694;13.294;2023-04-01T13:16:39;7.60;99.90
18577;DHT22;9418;52.694;13.294;2023-04-01T13:19:08;7.50;99.90
18577;DHT22;9418;52.694;13.294;2023-04-01T13:21:47;7.60;99.90
18577;DHT22;9418;52.694;13.294;2023-04-01T13:24:28;7.40;92.80
18577;DHT22;9418;52.694;13.294;2023-04-01T13:27:01;7.60;99.90
18577;DHT22;9418;52.694;13.294;2023-04-01T13:29:32;7.60;99.90
18577;DHT22;9418;52.694;13.294;2023-04-01T13:32:13;7.60;99.90
18577;DHT22;9418;52.694;13.294;2023-04-01T13:35:00;7.60;81.90
18577;DHT22;9418;52.694;13.294;2023-04-01T13:37:42;7.40;25.30
18577;DHT22;9418;52.694;13.294;2023-04-01T13:40:36;7.40;20.90
18577;DHT22;9418;52.694;13.294;2023-04-01T13:43:12;7.50;99.90
18577;DHT22;9418;52.694;13.294;2023-04-01T13:45:57;7.40;99.90
18577;DHT22;9418;52.694;13.294;2023-04-01T13:48:42;7.30;23.90
18577;DHT22;9418;52.694;13.294;2023-04-01T13:51:41;7.30;27.40
18577;DHT22;9418;52.694;13.294;2023-04-01T13:54:28;7.30;23.90
18577;DHT22;9418;52.694;13.294;2023-04-01T13:57:14;7.40;21.30
18577;DHT22;9418;52.694;13.294;2023-04-01T14:00:10;7.10;33.90
18577;DHT22;9418;52.694;13.294;2023-04-01T14:02:51;7.20;26.80
18577;DHT22;9418;52.694;13.294;2023-04-01T14:05:46;7.10;30.20
18577;DHT22;9418;52.694;13.294;2023-04-01T14:08:26;7.20;28.40
18577;DHT22;9418;52.694;13.294;2023-04-01T14:11:02;7.10;27.50
18577;DHT22;9418;52.694;13.294;2023-04-01T14:13:40;7.10;23.60
18577;DHT22;9418;52.694;13.294;2023-04-01T14:16:44;7.10;21.20
18577;DHT22;9418;52.694;13.294;2023-04-01T14:19:29;7.10;21.40
18577;DHT22;9418;52.694;13.294;2023-04-01T14:22:05;7.00;23.70
18577;DHT22;9418;52.694;13.294;2023-04-01T14:27:41;6.90;27.40
18577;DHT22;9418;52.694;13.294;2023-04-01T14:30:26;7.00;28.30
18577;DHT22;9418;52.694;13.294;2023-04-01T14:33:06;6.90;37.10
18577;DHT22;9418;52.694;13.294;2023-04-01T14:35:39;7.10;27.30
18577;DHT22;9418;52.694;13.294;2023-04-01T14:41:19;7.00;37.80
18577;DHT22;9418;52.694;13.294;2023-04-01T14:43:59;7.00;45.60
18577;DHT22;9418;52.694;13.294;2023-04-01T14:46:54;7.00;53.20
18577;DHT22;9418;52.694;13.294;2023-04-01T14:49:33;7.00;41.10
18577;DHT22;9418;52.694;13.294;2023-04-01T14:52:05;7.00;47.40
18577;DHT22;9418;52.694;13.294;2023-04-01T14:54:40;7.00;50.60
18577;DHT22;9418;52.694;13.294;2023-04-01T14:57:11;6.90;57.90
18577;DHT22;9418;52.694;13.294;2023-04-01T14:59:47;6.90;53.50
18577;DHT22;9418;52.694;13.294;2023-04-01T15:02:26;6.80;53.70
18577;DHT22;9418;52.694;13.294;2023-04-01T15:04:59;6.80;60.00
18577;DHT22;9418;52.694;13.294;2023-04-01T15:10:43;6.90;42.00
18577;DHT22;9418;52.694;13.294;2023-04-01T15:13:14;6.80;43.20
18577;DHT22;9418;52.694;13.294;2023-04-01T15:16:03;6.80;47.60
18577;DHT22;9418;52.694;13.294;2023-04-01T15:18:39;6.80;35.40
18577;DHT22;9418;52.694;13.294;2023-04-01T15:21:17;6.70;32.20
18577;DHT22;9418;52.694;13.294;2023-04-01T15:23:56;6.80;32.30
18577;DHT22;9418;52.694;13.294;2023-04-01T15:26:37;6.80;34.20
18577;DHT22;9418;52.694;13.294;2023-04-01T15:29:25;6.70;34.90
18577;DHT22;9418;52.694;13.294;2023-04-01T15:31:59;6.70;32.30
18577;DHT22;9418;52.694;13.294;2023-04-01T15:34:34;6.70;39.60
18577;DHT22;9418;52.694;13.294;2023-04-01T15:37:08;6.50;69.00
18577;DHT22;9418;52.694;13.294;2023-04-01T15:39:46;6.60;45.50
18577;DHT22;9418;52.694;13.294;2023-04-01T15:42:31;6.60;44.80
18577;DHT22;9418;52.694;13.294;2023-04-01T15:45:06;6.60;58.10
18577;DHT22;9418;52.694;13.294;2023-04-01T15:47:42;6.60;53.70
18577;DHT22;9418;52.694;13.294;2023-04-01T15:53:18;6.60;48.80
18577;DHT22;9418;52.694;13.294;2023-04-01T15:55:57;6.60;48.90
18577;DHT22;9418;52.694;13.294;2023-04-01T15:58:41;6.50;49.70
18577;DHT22;9418;52.694;13.294;2023-04-01T16:01:18;6.40;51.40
18577;DHT22;9418;52.694;13.294;2023-04-01T16:03:51;6.40;48.20
18577;DHT22;9418;52.694;13.294;2023-04-01T16:06:38;6.30;55.30
18577;DHT22;9418;52.694;13.294;2023-04-01T16:09:19;6.30;55.40
18577;DHT22;9418;52.694;13.294;2023-04-01T16:11:54;6.30;52.00
18577;DHT22;9418;52.694;13.294;2023-04-01T16:14:33;6.30;47.60
18577;DHT22;9418;52.694;13.294;2023-04-01T16:17:14;6.30;49.50
18577;DHT22;9418;52.694;13.294;2023-04-01T16:19:51;6.20;51.00
18577;DHT22;9418;52.694;13.294;2023-04-01T16:22:23;6.10;54.50
18577;DHT22;9418;52.694;13.294;2023-04-01T16:24:54;6.10;51.50
18577;DHT22;9418;52.694;13.294;2023-04-01T16:27:29;6.10;50.70
18577;DHT22;9418;52.694;13.294;2023-04-01T16:30:03;6.10;51.00
18577;DHT22;9418;52.694;13.294;2023-04-01T16:32:49;6.10;49.80
18577;DHT22;9418;52.694;13.294;2023-04-01T16:35:29;6.00;55.10
18577;DHT22;9418;52.694;13.294;2023-04-01T16:38:01;5.90;59.00
18577;DHT22;9418;52.694;13.294;2023-04-01T16:40:40;6.00;54.40
18577;DHT22;9418;52.694;13.294;2023-04-01T16:43:15;5.90;63.20
18577;DHT22;9418;52.694;13.294;2023-04-01T16:45:51;5.90;57.80
18577;DHT22;9418;52.694;13.294;2023-04-01T16:48:22;5.90;50.00
18577;DHT22;9418;52.694;13.294;2023-04-01T16:50:55;5.90;51.70
18577;DHT22;9418;52.694;13.294;2023-04-01T16:53:34;5.90;49.20
18577;DHT22;9418;52.694;13.294;2023-04-01T16:56:10;5.90;43.70
18577;DHT22;9418;52.694;13.294;2023-04-01T16:58:41;5.80;50.80
18577;DHT22;9418;52.694;13.294;2023-04-01T17:01:13;5.80;46.20
18577;DHT22;9418;52.694;13.294;2023-04-01T17:03:44;5.70;52.20
18577;DHT22;9418;52.694;13.294;2023-04-01T17:06:23;5.70;48.90
18577;DHT22;9418;52.694;13.294;2023-04-01T17:09:04;5.70;55.20
18577;DHT22;9418;52.694;13.294;2023-04-01T17:11:38;5.70;59.40
18577;DHT22;9418;52.694;13.294;2023-04-01T17:14:15;5.60;60.30
18577;DHT22;9418;52.694;13.294;2023-04-01T17:17:01;5.60;64.00
18577;DHT22;9418;52.694;13.294;2023-04-01T17:19:49;5.50;65.10
18577;DHT22;9418;52.694;13.294;2023-04-01T17:22:31;5.60;57.80
18577;DHT22;9418;52.694;13.294;2023-04-01T17:25:07;5.50;49.70
18577;DHT22;9418;52.694;13.294;2023-04-01T17:27:47;5.40;51.50
18577;DHT22;9418;52.694;13.294;2023-04-01T17:30:33;5.30;51.40
18577;DHT22;9418;52.694;13.294;2023-04-01T17:33:34;5.30;47.00
18577;DHT22;9418;52.694;13.294;2023-04-01T17:36:09;5.30;50.10
18577;DHT22;9418;52.694;13.294;2023-04-01T17:38:59;5.30;42.00
18577;DHT22;9418;52.694;13.294;2023-04-01T17:41:35;5.20;38.80
18577;DHT22;9418;52.694;13.294;2023-04-01T17:44:15;5.10;43.10
18577;DHT22;9418;52.694;13.294;2023-04-01T17:49:52;4.90;36.40